Time;durP1;ratioP1;P1;durP2;ratioP2;P2;SDS_P1;SDS_P2;PMS_P1;PMS_P2;Temp;Humidity;BMP_temperature;BMP_pressure;BME280_temperature;BME280_humidity;BME280_pressure;Samples;Min_cycle;Max_cycle;Signal;HPM_P1;HPM_P2
2022/11/30 00:01:14;;;;;;;133.88;40.60;;;4.30;99.90;;;;;;5036286;28;20033;-59
2022/11/30 00:03:40;;;;;;;66.53;31.52;;;;;;;;;;5041674;28;20044;-59
2022/11/30 00:06:07;;;;;;;81.40;35.65;;;;;;;;;;5014009;28;20571;-59
2022/11/30 00:08:33;;;;;;;81.47;32.67;;;;;;;;;;5031374;28;20037;-58
2022/11/30 00:10:59;;;;;;;51.03;26.25;;;;;;;;;;5036208;28;20041;-58
2022/11/30 00:13:25;;;;;;;121.97;40.78;;;;;;;;;;5015206;28;20044;-59
2022/11/30 00:15:51;;;;;;;52.83;29.83;;;;;;;;;;5033061;28;20467;-59
2022/11/30 00:18:17;;;;;;;95.78;38.97;;;;;;;;;;5043354;28;20037;-58
2022/11/30 00:20:43;;;;;;;89.28;35.53;;;5.30;99.90;;;;;;5035642;28;20131;-59
2022/11/30 00:23:09;;;;;;;76.40;33.53;;;;;;;;;;5042166;28;20047;-59
2022/11/30 00:25:36;;;;;;;120.65;41.33;;;5.30;99.90;;;;;;5042424;28;20037;-58
2022/11/30 00:28:01;;;;;;;146.52;45.03;;;4.80;99.90;;;;;;5029541;28;20034;-59
2022/11/30 00:30:28;;;;;;;103.57;37.13;;;;;;;;;;5033684;28;20041;-58
2022/11/30 00:32:57;;;;;;;123.18;39.35;;;4.50;99.90;;;;;;5042966;28;20128;-58
2022/11/30 00:35:22;;;;;;;145.02;45.67;;;5.00;99.90;;;;;;5032837;28;20038;-58
2022/11/30 00:37:48;;;;;;;109.05;38.85;;;;;;;;;;5029382;28;20407;-58
2022/11/30 00:40:14;;;;;;;94.95;37.28;;;;;;;;;;5043790;28;20513;-59
2022/11/30 00:42:41;;;;;;;91.40;35.72;;;5.30;99.90;;;;;;5019067;28;20128;-59
2022/11/30 00:45:07;;;;;;;113.53;40.47;;;;;;;;;;5030056;28;20573;-59
2022/11/30 00:47:33;;;;;;;103.32;36.55;;;;;;;;;;5031127;28;20030;-58
2022/11/30 00:49:59;;;;;;;71.90;30.35;;;;;;;;;;5030508;28;20083;-59
2022/11/30 00:52:25;;;;;;;56.88;28.20;;;;;;;;;;5030801;28;20414;-58
2022/11/30 00:54:51;;;;;;;56.63;28.25;;;;;;;;;;5034148;28;20037;-59
2022/11/30 00:57:17;;;;;;;111.90;39.85;;;;;;;;;;5020980;28;20044;-58
2022/11/30 00:59:43;;;;;;;95.97;37.53;;;5.30;99.90;;;;;;5030696;28;20069;-58
2022/11/30 01:02:08;;;;;;;60.67;29.30;;;5.30;99.90;;;;;;5030726;28;20483;-57
2022/11/30 01:04:34;;;;;;;72.40;32.97;;;;;;;;;;5032455;28;20487;-59
2022/11/30 01:07:00;;;;;;;91.88;36.63;;;;;;;;;;5028608;28;20029;-59
2022/11/30 01:09:26;;;;;;;99.40;38.53;;;;;;;;;;5030766;28;20499;-58
2022/11/30 01:11:53;;;;;;;57.45;28.73;;;;;;;;;;5030348;28;20312;-58
2022/11/30 01:14:19;;;;;;;47.88;25.40;;;5.40;99.90;;;;;;5030285;28;20502;-57
2022/11/30 01:16:45;;;;;;;43.85;24.63;;;5.30;99.90;;;;;;5029770;28;20037;-57
2022/11/30 01:19:11;;;;;;;56.40;28.73;;;;;;;;;;5030044;28;20033;-58
2022/11/30 01:21:37;;;;;;;82.82;33.97;;;;;;;;;;5040043;28;20068;-58
2022/11/30 01:24:05;;;;;;;80.85;33.88;;;;;;;;;;5035565;28;20541;-59
2022/11/30 01:26:31;;;;;;;102.25;38.30;;;;;;;;;;5030046;28;20046;-58
2022/11/30 01:28:56;;;;;;;96.32;38.25;;;5.50;99.90;;;;;;5029881;28;20037;-56
2022/11/30 01:31:23;;;;;;;78.57;34.10;;;5.50;99.90;;;;;;5030322;28;20483;-59
2022/11/30 01:33:53;;;;;;;68.72;31.27;;;5.40;99.90;;;;;;5030208;28;20403;-59
2022/11/30 01:36:24;;;;;;;70.38;31.23;;;5.40;99.90;;;;;;5030339;28;20044;-57
2022/11/30 01:38:51;;;;;;;87.28;33.47;;;;;;;;;;5012029;28;20120;-58
2022/11/30 01:41:18;;;;;;;81.28;31.08;;;;;;;;;;5030303;28;20068;-58
2022/11/30 01:43:51;;;;;;;85.97;31.60;;;5.50;99.90;;;;;;5029720;28;20077;-59
2022/11/30 01:46:20;;;;;;;70.50;28.95;;;;;;;;;;5030059;28;20042;-59
2022/11/30 01:48:54;;;;;;;58.47;26.55;;;4.50;99.90;;;;;;5029629;28;20076;-60
2022/11/30 01:51:20;;;;;;;79.43;31.13;;;;;;;;;;5030100;28;20116;-59
2022/11/30 01:53:46;;;;;;;62.65;27.52;;;4.90;99.90;;;;;;5029978;28;20048;-58
2022/11/30 01:56:12;;;;;;;54.95;26.15;;;4.80;99.90;;;;;;5029602;28;20034;-59
2022/11/30 01:58:38;;;;;;;65.30;27.60;;;;;;;;;;5029757;28;20121;-59
2022/11/30 02:01:04;;;;;;;62.83;27.02;;;;;;;;;;5030175;28;20046;-59
2022/11/30 02:03:50;;;;;;;53.80;23.85;;;;;;;;;;5030001;28;20033;-59
2022/11/30 02:06:16;;;;;;;73.57;29.90;;;;;;;;;;5029855;28;20099;-60
2022/11/30 02:08:42;;;;;;;51.25;23.85;;;;;;;;;;5029294;28;20041;-58
2022/11/30 02:11:12;;;;;;;46.63;22.83;;;;;;;;;;5030078;28;20051;-59
2022/11/30 02:14:03;;;;;;;90.32;34.08;;;4.50;99.90;;;;;;5026878;28;20068;-59
2022/11/30 02:16:38;;;;;;;38.25;19.60;;;;;;;;;;5014509;28;20051;-59
2022/11/30 02:19:12;;;;;;;35.15;19.75;;;5.00;99.90;;;;;;5028664;28;20083;-59
2022/11/30 02:21:57;;;;;;;35.85;19.40;;;5.70;99.90;;;;;;5029751;28;20144;-59
2022/11/30 02:24:35;;;;;;;59.90;26.00;;;;;;;;;;5089856;22;20457;-66
2022/11/30 02:27:20;;;;;;;37.67;20.98;;;;;;;;;;5029178;28;20055;-66
2022/11/30 02:29:45;;;;;;;72.45;28.58;;;5.00;99.90;;;;;;5034395;28;20120;-66
2022/11/30 02:32:24;;;;;;;36.05;20.15;;;;;;;;;;5041946;28;20116;-66
2022/11/30 02:34:51;;;;;;;34.28;20.25;;;5.50;99.90;;;;;;5015020;28;20041;-66
2022/11/30 02:37:18;;;;;;;45.63;24.65;;;5.20;99.90;;;;;;5021504;28;20033;-66
2022/11/30 02:39:44;;;;;;;59.60;26.95;;;;;;;;;;5032768;28;20044;-66
2022/11/30 02:42:11;;;;;;;90.07;31.55;;;;;;;;;;5030351;28;20367;-66
2022/11/30 02:44:38;;;;;;;56.88;26.95;;;;;;;;;;5041941;28;20044;-66
2022/11/30 02:47:44;;;;;;;47.28;23.15;;;4.70;99.90;;;;;;5025918;28;20503;-66
2022/11/30 02:50:24;;;;;;;37.70;20.65;;;;;;;;;;5015256;28;20092;-66
2022/11/30 02:52:51;;;;;;;45.70;23.63;;;;;;;;;;5019903;28;20130;-66
2022/11/30 02:55:18;;;;;;;62.17;28.60;;;;;;;;;;5043072;28;20037;-66
2022/11/30 02:57:44;;;;;;;70.20;32.30;;;;;;;;;;5029829;28;20041;-66
2022/11/30 03:00:11;;;;;;;66.22;31.02;;;;;;;;;;5044153;28;20044;-66
2022/11/30 03:02:37;;;;;;;66.47;31.35;;;;;;;;;;5025822;28;20045;-66
2022/11/30 03:05:04;;;;;;;85.47;35.50;;;4.80;99.90;;;;;;5022015;28;20045;-66
2022/11/30 03:07:30;;;;;;;82.90;34.83;;;;;;;;;;5046044;28;20570;-66
2022/11/30 03:09:57;;;;;;;71.35;31.65;;;;;;;;;;5006250;28;20120;-66
2022/11/30 03:12:23;;;;;;;64.97;29.10;;;;;;;;;;5052367;28;20045;-66
2022/11/30 03:14:48;;;;;;;63.65;31.08;;;4.80;99.90;;;;;;5042207;28;20051;-66
2022/11/30 03:17:14;;;;;;;99.03;36.38;;;4.70;99.90;;;;;;5036189;28;20038;-66
2022/11/30 03:19:40;;;;;;;89.13;35.10;;;;;;;;;;5050664;28;20041;-66
2022/11/30 03:22:06;;;;;;;82.30;35.05;;;;;;;;;;5047570;28;20040;-66
2022/11/30 03:24:32;;;;;;;84.88;34.67;;;;;;;;;;5020325;28;20041;-66
2022/11/30 03:26:58;;;;;;;73.50;32.95;;;;;;;;;;5024196;28;20042;-66
2022/11/30 03:29:24;;;;;;;69.30;31.25;;;;;;;;;;5037061;28;20049;-66
2022/11/30 03:31:49;;;;;;;74.43;32.60;;;4.80;99.90;;;;;;5043563;28;20401;-66
2022/11/30 03:34:15;;;;;;;66.00;31.67;;;4.80;99.90;;;;;;5041895;28;20060;-66
2022/11/30 03:36:41;;;;;;;68.20;32.05;;;;;;;;;;5038960;28;20045;-66
2022/11/30 03:39:08;;;;;;;68.38;30.15;;;;;;;;;;5034434;28;20068;-66
2022/11/30 03:41:34;;;;;;;82.25;35.80;;;4.90;99.90;;;;;;5023315;28;20041;-66
2022/11/30 03:44:00;;;;;;;119.00;40.85;;;;;;;;;;5039681;28;20479;-66
2022/11/30 03:46:26;;;;;;;92.07;36.92;;;;;;;;;;5022387;28;20043;-66
2022/11/30 03:48:53;;;;;;;66.63;31.95;;;;;;;;;;5028437;28;20115;-66
2022/11/30 03:51:18;;;;;;;71.18;32.75;;;4.90;99.90;;;;;;5017615;28;20402;-66
2022/11/30 03:53:44;;;;;;;80.63;34.00;;;4.70;99.90;;;;;;5021870;28;20042;-66
2022/11/30 03:56:11;;;;;;;76.30;34.80;;;5.10;99.90;;;;;;5045554;28;20043;-66
2022/11/30 03:58:37;;;;;;;69.07;30.17;;;;;;;;;;5023464;28;20067;-66
2022/11/30 04:01:05;;;;;;;80.80;33.95;;;4.60;99.90;;;;;;5032370;28;20033;-66
2022/11/30 04:03:31;;;;;;;84.00;35.67;;;4.70;99.90;;;;;;5017275;28;20037;-66
2022/11/30 04:05:58;;;;;;;78.80;37.03;;;4.40;99.90;;;;;;5019867;28;20037;-66
2022/11/30 04:08:24;;;;;;;70.78;32.65;;;;;;;;;;5034794;28;20043;-66
2022/11/30 04:10:51;;;;;;;75.90;31.83;;;;;;;;;;5042555;28;20037;-66
2022/11/30 04:13:17;;;;;;;68.72;31.95;;;;;;;;;;5038916;28;20116;-66
2022/11/30 04:15:44;;;;;;;75.15;33.42;;;4.70;99.90;;;;;;5022404;28;20387;-66
2022/11/30 04:18:10;;;;;;;78.30;34.65;;;;;;;;;;5038052;28;20099;-66
2022/11/30 04:20:36;;;;;;;63.40;31.50;;;;;;;;;;5000791;28;20042;-66
2022/11/30 04:23:02;;;;;;;88.47;36.03;;;;;;;;;;5023450;28;20498;-66
2022/11/30 04:25:28;;;;;;;86.53;34.75;;;;;;;;;;5045419;28;20072;-68
2022/11/30 04:27:54;;;;;;;112.65;40.05;;;;;;;;;;5023780;28;20069;-66
2022/11/30 04:30:20;;;;;;;113.88;39.33;;;;;;;;;;5019430;28;20069;-66
2022/11/30 04:32:46;;;;;;;87.60;33.50;;;;;;;;;;5040319;28;20037;-66
2022/11/30 04:35:12;;;;;;;92.55;35.08;;;4.20;99.90;;;;;;5037871;28;20049;-66
2022/11/30 04:37:37;;;;;;;165.20;48.47;;;4.20;99.90;;;;;;5016233;28;20045;-66
2022/11/30 04:40:04;;;;;;;368.58;66.88;;;;;;;;;;5023472;28;20059;-65
2022/11/30 04:42:29;;;;;;;264.95;51.88;;;4.20;99.90;;;;;;5045126;28;20037;-66
2022/11/30 04:44:55;;;;;;;179.68;41.78;;;;;;;;;;5041276;28;20176;-66
2022/11/30 04:47:21;;;;;;;88.43;25.15;;;;;;;;;;5025978;28;20073;-66
2022/11/30 04:49:47;;;;;;;246.63;43.42;;;4.10;99.90;;;;;;5037754;28;20518;-66
2022/11/30 04:52:13;;;;;;;272.90;47.00;;;;;;;;;;5025925;28;20120;-65
2022/11/30 04:54:39;;;;;;;377.85;58.85;;;4.20;99.90;;;;;;5024671;28;20384;-66
2022/11/30 04:57:05;;;;;;;250.77;45.05;;;;;;;;;;5042234;28;20083;-66
2022/11/30 04:59:31;;;;;;;249.85;43.47;;;;;;;;;;5041761;28;20041;-66
2022/11/30 05:01:57;;;;;;;238.68;46.63;;;;;;;;;;5029997;28;20514;-66
2022/11/30 05:04:23;;;;;;;79.60;19.92;;;;;;;;;;5043319;28;20045;-66
2022/11/30 05:06:49;;;;;;;172.50;39.78;;;;;;;;;;5034445;28;20041;-65
2022/11/30 05:09:15;;;;;;;128.05;29.58;;;;;;;;;;5018745;28;20061;-66
2022/11/30 05:11:42;;;;;;;82.70;24.65;;;;;;;;;;5035488;28;20044;-66
2022/11/30 05:14:08;;;;;;;125.15;35.33;;;;;;;;;;5003318;28;20051;-65
2022/11/30 05:16:34;;;;;;;133.05;31.90;;;;;;;;;;5005663;28;20502;-65
2022/11/30 05:19:00;;;;;;;93.28;28.30;;;;;;;;;;5030546;28;20038;-65
2022/11/30 05:21:26;;;;;;;42.35;20.05;;;;;;;;;;5034289;28;20065;-66
2022/11/30 05:23:52;;;;;;;53.70;21.95;;;4.10;99.90;;;;;;5032618;28;20057;-66
2022/11/30 05:26:18;;;;;;;108.13;31.25;;;;;;;;;;5033073;28;20482;-65
2022/11/30 05:28:44;;;;;;;93.57;29.42;;;;;;;;;;5028826;28;20132;-66
2022/11/30 05:31:10;;;;;;;87.20;29.23;;;;;;;;;;5045358;28;20383;-66
2022/11/30 05:33:35;;;;;;;97.35;29.98;;;3.70;99.90;;;;;;5037754;28;20521;-66
2022/11/30 05:36:01;;;;;;;93.28;28.80;;;;;;;;;;5015795;28;20170;-66
2022/11/30 05:38:27;;;;;;;52.40;21.90;;;;;;;;;;5040893;28;20044;-66
2022/11/30 05:40:59;;;;;;;64.55;25.38;;;;;;;;;;5048412;28;20124;-66
2022/11/30 05:43:25;;;;;;;53.28;23.85;;;3.90;99.90;;;;;;5047599;28;20045;-66
2022/11/30 05:45:51;;;;;;;43.78;20.40;;;;;;;;;;5013886;28;20037;-66
2022/11/30 05:48:17;;;;;;;80.53;27.75;;;;;;;;;;5021067;28;20411;-66
2022/11/30 05:50:43;;;;;;;54.17;22.75;;;;;;;;;;5039000;28;20454;-65
2022/11/30 05:53:09;;;;;;;97.50;29.10;;;;;;;;;;5031639;28;20069;-65
2022/11/30 05:55:35;;;;;;;59.20;24.38;;;;;;;;;;5033894;28;20045;-65
2022/11/30 05:58:01;;;;;;;40.80;20.02;;;;;;;;;;5036053;28;20506;-66
2022/11/30 06:00:27;;;;;;;84.55;27.58;;;;;;;;;;5021671;28;20124;-65
2022/11/30 06:02:57;;;;;;;79.28;28.65;;;4.20;99.90;;;;;;5028799;28;20037;-66
2022/11/30 06:05:22;;;;;;;50.78;22.35;;;4.00;99.90;;;;;;5031928;28;20029;-66
2022/11/30 06:07:48;;;;;;;87.35;29.00;;;4.10;99.90;;;;;;5032418;28;20040;-66
2022/11/30 06:10:14;;;;;;;92.03;31.48;;;;;;;;;;5035742;28;20040;-66
2022/11/30 06:12:40;;;;;;;52.53;21.75;;;;;;;;;;5033878;28;20082;-66
2022/11/30 06:15:07;;;;;;;94.35;27.50;;;;;;;;;;5035629;28;20066;-66
2022/11/30 06:17:33;;;;;;;79.20;28.15;;;4.10;99.90;;;;;;5019039;28;20457;-66
2022/11/30 06:19:58;;;;;;;76.97;28.25;;;4.20;99.90;;;;;;5042497;28;20076;-67
2022/11/30 06:22:24;;;;;;;44.42;21.23;;;;;;;;;;5049854;28;20534;-66
2022/11/30 06:24:50;;;;;;;83.88;27.75;;;;;;;;;;5020440;28;20088;-65
2022/11/30 06:27:16;;;;;;;37.50;19.48;;;3.90;99.90;;;;;;5033698;28;20046;-66
2022/11/30 06:29:42;;;;;;;64.20;25.17;;;;;;;;;;5020287;28;20127;-66
2022/11/30 06:32:07;;;;;;;35.65;18.33;;;4.00;99.90;;;;;;5041043;28;20043;-66
2022/11/30 06:34:33;;;;;;;69.05;24.88;;;;;;;;;;5034235;28;20495;-65
2022/11/30 06:36:59;;;;;;;90.53;29.85;;;;;;;;;;5019978;28;20044;-65
2022/11/30 06:39:25;;;;;;;45.65;20.73;;;;;;;;;;5034989;28;20034;-66
2022/11/30 06:41:51;;;;;;;61.50;25.80;;;4.00;99.90;;;;;;5050406;28;20033;-66
2022/11/30 06:44:17;;;;;;;94.43;33.38;;;4.00;99.90;;;;;;5041899;28;20042;-66
2022/11/30 06:46:42;;;;;;;82.68;28.13;;;4.00;99.90;;;;;;5024440;28;20044;-66
2022/11/30 06:49:08;;;;;;;110.70;32.42;;;;;;;;;;5035424;28;20121;-66
2022/11/30 06:51:36;;;;;;;75.35;27.08;;;;;;;;;;5038613;28;20045;-66
2022/11/30 06:54:01;;;;;;;102.53;32.30;;;3.90;99.90;;;;;;5038943;28;20037;-66
2022/11/30 06:56:27;;;;;;;66.38;26.13;;;;;;;;;;5019217;28;20086;-66
2022/11/30 06:58:53;;;;;;;60.55;23.60;;;;;;;;;;5035693;28;20076;-66
2022/11/30 07:01:19;;;;;;;57.55;24.23;;;;;;;;;;5039050;28;20033;-66
2022/11/30 07:03:45;;;;;;;99.35;31.67;;;;;;;;;;5051065;28;20489;-66
2022/11/30 07:06:13;;;;;;;76.35;28.15;;;;;;;;;;5027537;28;20040;-66
2022/11/30 07:08:43;;;;;;;91.03;31.92;;;;;;;;;;5049615;28;20041;-66
2022/11/30 07:11:10;;;;;;;54.75;23.85;;;;;;;;;;5038471;28;20517;-66
2022/11/30 07:13:36;;;;;;;70.00;27.30;;;3.60;99.90;;;;;;5043837;28;20037;-66
2022/11/30 07:16:04;;;;;;;61.78;23.40;;;;;;;;;;5018793;28;20033;-66
2022/11/30 07:18:29;;;;;;;79.75;27.70;;;3.60;99.90;;;;;;5041637;28;20044;-66
2022/11/30 07:20:58;;;;;;;61.50;26.08;;;;;;;;;;5024860;28;20075;-66
2022/11/30 07:26:09;;;;;;;76.90;26.73;;;;;;;;;;5043240;28;20038;-66
2022/11/30 07:28:36;;;;;;;106.10;30.92;;;;;;;;;;5041108;28;20098;-66
2022/11/30 07:31:13;;;;;;;49.17;22.20;;;;;;;;;;5040757;28;20394;-66
2022/11/30 07:33:40;;;;;;;50.53;22.63;;;;;;;;;;5042554;28;20036;-66
2022/11/30 07:36:06;;;;;;;76.13;27.52;;;4.10;99.90;;;;;;5038813;28;20115;-66
2022/11/30 07:38:32;;;;;;;54.85;24.02;;;;;;;;;;5030754;28;20041;-66
2022/11/30 07:40:58;;;;;;;67.15;27.48;;;;;;;;;;5038105;28;20033;-66
2022/11/30 07:43:24;;;;;;;50.35;21.85;;;;;;;;;;5042813;28;20032;-66
2022/11/30 07:45:52;;;;;;;73.25;28.85;;;;;;;;;;5039029;28;20036;-66
2022/11/30 07:48:18;;;;;;;83.57;30.38;;;;;;;;;;5043104;28;20037;-66
2022/11/30 07:50:44;;;;;;;76.85;28.67;;;;;;;;;;5033310;28;20041;-66
2022/11/30 07:53:10;;;;;;;50.75;23.02;;;;;;;;;;5045391;28;20438;-66
2022/11/30 07:55:35;;;;;;;90.40;29.90;;;4.00;99.90;;;;;;5049415;28;20041;-66
2022/11/30 07:58:01;;;;;;;62.20;27.08;;;;;;;;;;5044806;28;20036;-66
2022/11/30 08:00:27;;;;;;;67.50;27.33;;;;;;;;;;5040630;28;20069;-66
2022/11/30 08:02:53;;;;;;;109.72;35.05;;;;;;;;;;5036493;28;20045;-66
2022/11/30 08:05:19;;;;;;;107.18;34.22;;;;;;;;;;5030630;28;20032;-66
2022/11/30 08:07:50;;;;;;;61.22;28.35;;;4.30;99.90;;;;;;5039987;28;20040;-66
2022/11/30 08:10:16;;;;;;;126.93;38.88;;;;;;;;;;5043001;28;20040;-66
2022/11/30 08:12:42;;;;;;;78.55;31.70;;;;;;;;;;5039733;28;20037;-66
2022/11/30 08:15:08;;;;;;;62.35;28.17;;;;;;;;;;5042483;28;20038;-66
2022/11/30 08:17:34;;;;;;;107.55;36.30;;;4.40;99.90;;;;;;5016983;28;20499;-66
2022/11/30 08:19:59;;;;;;;99.72;37.13;;;4.30;99.90;;;;;;5039967;28;20041;-66
2022/11/30 08:22:25;;;;;;;93.78;39.20;;;;;;;;;;5042354;28;20052;-66
2022/11/30 08:24:51;;;;;;;94.78;36.45;;;;;;;;;;5118183;22;20049;-59
2022/11/30 08:27:20;;;;;;;81.85;34.45;;;;;;;;;;5054970;28;20416;-57
2022/11/30 08:29:45;;;;;;;173.98;48.92;;;4.70;99.90;;;;;;5064812;28;20040;-59
2022/11/30 08:32:11;;;;;;;116.10;42.20;;;;;;;;;;5060430;28;20043;-58
2022/11/30 08:34:37;;;;;;;141.23;46.38;;;;;;;;;;5068882;28;20076;-56
2022/11/30 08:37:03;;;;;;;166.02;50.63;;;;;;;;;;5063811;28;20032;-59
2022/11/30 08:39:32;;;;;;;165.23;48.38;;;5.00;99.90;;;;;;5068047;28;20512;-59
2022/11/30 08:41:58;;;;;;;119.30;44.15;;;;;;;;;;5059736;28;20041;-58
2022/11/30 08:44:24;;;;;;;80.25;34.58;;;;;;;;;;5065875;28;20032;-59
2022/11/30 08:46:51;;;;;;;112.10;41.28;;;;;;;;;;5060550;28;20361;-60
2022/11/30 08:49:17;;;;;;;211.35;55.65;;;;;;;;;;5062571;28;20511;-59
2022/11/30 08:51:43;;;;;;;147.23;46.45;;;5.10;99.90;;;;;;5067315;28;20040;-56
2022/11/30 08:54:09;;;;;;;112.40;42.58;;;;;;;;;;5063653;28;20456;-57
2022/11/30 08:56:35;;;;;;;98.80;37.60;;;;;;;;;;5061645;28;20466;-57
2022/11/30 08:59:00;;;;;;;121.00;43.22;;;5.10;99.90;;;;;;5059926;28;20037;-59
2022/11/30 09:01:26;;;;;;;100.20;40.85;;;5.10;99.90;;;;;;5061675;28;20028;-58
2022/11/30 09:03:54;;;;;;;171.30;50.47;;;5.60;99.90;;;;;;5058559;28;20028;-59
2022/11/30 09:06:28;;;;;;;106.55;40.47;;;4.90;99.90;;;;;;5061875;28;20028;-59
2022/11/30 09:08:56;;;;;;;129.60;43.03;;;5.20;99.90;;;;;;5059935;28;20052;-59
2022/11/30 09:11:23;;;;;;;104.85;42.58;;;;;;;;;;5056536;28;20509;-57
2022/11/30 09:13:50;;;;;;;104.88;42.33;;;5.30;99.90;;;;;;5052036;28;20074;-59
2022/11/30 09:16:17;;;;;;;86.32;37.05;;;;;;;;;;5046073;28;20435;-58
2022/11/30 09:18:43;;;;;;;95.38;39.10;;;;;;;;;;5063895;28;20037;-59
2022/11/30 09:21:11;;;;;;;70.63;32.95;;;5.40;99.90;;;;;;5063822;28;20052;-58
2022/11/30 09:23:37;;;;;;;105.68;40.65;;;;;;;;;;5063973;28;20044;-60
2022/11/30 09:26:08;;;;;;;135.82;45.47;;;;;;;;;;5066089;28;20129;-59
2022/11/30 09:28:35;;;;;;;118.00;42.72;;;5.20;99.90;;;;;;5063535;28;20474;-59
2022/11/30 09:31:01;;;;;;;86.00;39.55;;;;;;;;;;5065142;28;20417;-59
2022/11/30 09:33:27;;;;;;;101.70;39.35;;;;;;;;;;5064471;28;20044;-58
2022/11/30 09:35:57;;;;;;;84.45;37.55;;;;;;;;;;5066580;28;20033;-59
2022/11/30 09:38:23;;;;;;;84.05;36.65;;;5.80;99.90;;;;;;5063887;28;20036;-56
2022/11/30 09:40:55;;;;;;;102.32;37.72;;;;;;;;;;5065316;28;20037;-59
2022/11/30 09:43:31;;;;;;;90.22;38.72;;;6.00;99.90;;;;;;5064260;28;20135;-58
2022/11/30 09:46:00;;;;;;;150.05;51.10;;;6.60;99.90;;;;;;5063846;28;20073;-58
2022/11/30 09:48:41;;;;;;;123.18;41.92;;;;;;;;;;5063655;28;20056;-59
2022/11/30 09:51:13;;;;;;;97.00;40.33;;;6.30;99.90;;;;;;5064075;28;20044;-58
2022/11/30 09:53:43;;;;;;;90.00;40.58;;;6.50;99.90;;;;;;5062793;28;20521;-57
2022/11/30 09:56:29;;;;;;;103.75;41.53;;;;;;;;;;5061780;28;20037;-57
2022/11/30 09:59:23;;;;;;;86.43;40.22;;;6.10;99.90;;;;;;5066210;28;20037;-59
2022/11/30 10:01:53;;;;;;;84.60;38.15;;;;;;;;;;5064816;28;20426;-59
2022/11/30 10:04:29;;;;;;;74.55;36.35;;;;;;;;;;5062417;28;20040;-59
2022/11/30 10:07:09;;;;;;;76.55;36.55;;;;;;;;;;5061384;28;20072;-59
2022/11/30 10:09:53;;;;;;;73.60;36.42;;;;;;;;;;5064114;28;20136;-59
2022/11/30 10:12:24;;;;;;;99.07;40.25;;;;;;;;;;5063629;28;20482;-58
2022/11/30 10:15:03;;;;;;;81.35;38.05;;;7.00;99.90;;;;;;5067270;28;20041;-59
2022/11/30 10:17:55;;;;;;;80.20;35.88;;;6.80;99.90;;;;;;5064038;28;20036;-58
2022/11/30 10:20:46;;;;;;;90.65;38.85;;;;;;;;;;5058659;28;20052;-58
2022/11/30 10:23:26;;;;;;;70.32;34.17;;;6.60;99.90;;;;;;5064286;28;20040;-58
2022/11/30 10:26:02;;;;;;;62.50;32.65;;;;;;;;;;5064221;28;20033;-59
2022/11/30 10:28:37;;;;;;;92.68;38.03;;;;;;;;;;5066076;28;20041;-57
2022/11/30 10:31:11;;;;;;;65.50;34.13;;;6.90;99.90;;;;;;5066322;28;20513;-58
2022/11/30 10:33:50;;;;;;;69.45;33.50;;;6.90;99.90;;;;;;5063557;28;20523;-58
2022/11/30 10:36:22;;;;;;;77.70;35.67;;;;;;;;;;5063057;28;20540;-58
2022/11/30 10:38:51;;;;;;;74.28;35.17;;;;;;;;;;5065956;28;20049;-58
2022/11/30 10:41:49;;;;;;;72.82;35.53;;;7.10;99.90;;;;;;5062401;28;20459;-59
2022/11/30 10:44:25;;;;;;;67.20;33.72;;;;;;;;;;5055394;28;20061;-57
2022/11/30 10:46:57;;;;;;;68.25;31.92;;;;;;;;;;5068129;28;20044;-59
2022/11/30 10:49:25;;;;;;;76.72;33.58;;;;;;;;;;5069042;28;20059;-58
2022/11/30 10:51:55;;;;;;;69.93;32.97;;;7.20;99.90;;;;;;5066260;28;20037;-59
2022/11/30 10:54:22;;;;;;;70.80;33.20;;;;;;;;;;5069891;28;20103;-58
2022/11/30 10:56:48;;;;;;;61.55;31.52;;;;;;;;;;5069657;28;20090;-59
2022/11/30 10:59:26;;;;;;;69.22;33.63;;;;;;;;;;5069281;28;20033;-59
2022/11/30 11:01:52;;;;;;;76.35;32.95;;;;;;;;;;5059430;28;20060;-59
2022/11/30 11:04:26;;;;;;;62.75;32.70;;;;;;;;;;5063276;28;20064;-58
2022/11/30 11:07:17;;;;;;;80.30;35.43;;;7.50;99.90;;;;;;5065543;28;20029;-58
2022/11/30 11:09:45;;;;;;;85.63;37.03;;;;;;;;;;5069231;28;20344;-58
2022/11/30 11:12:14;;;;;;;66.93;33.92;;;;;;;;;;5068368;28;20044;-58
2022/11/30 11:14:40;;;;;;;80.55;35.00;;;;;;;;;;5066992;28;20115;-59
2022/11/30 11:17:22;;;;;;;64.18;31.83;;;7.50;99.90;;;;;;5068847;28;20040;-56
2022/11/30 11:19:49;;;;;;;61.55;31.90;;;7.20;99.90;;;;;;5066436;28;20160;-59
2022/11/30 11:22:25;;;;;;;75.55;34.20;;;;;;;;;;5066555;28;20063;-58
2022/11/30 11:25:11;;;;;;;64.70;32.08;;;;;;;;;;5068873;28;20029;-59
2022/11/30 11:27:40;;;;;;;65.93;33.13;;;;;;;;;;5052121;28;20293;-58
2022/11/30 11:30:11;;;;;;;65.57;32.80;;;;;;;;;;5056684;28;20095;-58
2022/11/30 11:32:37;;;;;;;71.78;33.55;;;;;;;;;;5054310;28;20040;-58
2022/11/30 11:35:52;;;;;;;62.95;32.10;;;7.70;99.90;;;;;;5053529;28;20049;-58
2022/11/30 11:38:19;;;;;;;67.18;33.05;;;;;;;;;;4989304;28;20126;-59
2022/11/30 11:40:55;;;;;;;59.65;31.85;;;;;;;;;;5050354;28;20517;-59
2022/11/30 11:43:28;;;;;;;57.33;30.67;;;;;;;;;;5049840;28;20556;-58
2022/11/30 11:45:59;;;;;;;68.03;32.22;;;;;;;;;;5052527;28;20445;-58
2022/11/30 11:48:30;;;;;;;55.25;29.80;;;;;;;;;;5053337;28;20067;-58
2022/11/30 11:50:57;;;;;;;60.25;32.15;;;;;;;;;;5051740;28;20477;-59
2022/11/30 11:53:40;;;;;;;64.43;31.80;;;;;;;;;;5051766;28;20056;-58
2022/11/30 11:56:06;;;;;;;63.50;31.33;;;;;;;;;;5049360;28;20053;-58
2022/11/30 11:58:45;;;;;;;81.90;34.25;;;;;;;;;;5049166;28;20127;-58
2022/11/30 12:01:16;;;;;;;62.53;31.27;;;;;;;;;;5050380;28;20037;-58
2022/11/30 12:04:02;;;;;;;71.80;32.53;;;;;;;;;;5053337;28;20421;-58
2022/11/30 12:06:28;;;;;;;54.97;29.48;;;;;;;;;;5051629;28;20033;-58
2022/11/30 12:09:01;;;;;;;57.85;29.92;;;;;;;;;;5052502;28;20040;-59
2022/11/30 12:11:33;;;;;;;60.58;30.88;;;;;;;;;;5059835;28;20043;-57
2022/11/30 12:14:08;;;;;;;58.83;29.95;;;7.90;99.90;;;;;;5064907;28;20032;-57
2022/11/30 12:16:35;;;;;;;60.35;30.60;;;;;;;;;;5063112;28;20141;-58
2022/11/30 12:19:14;;;;;;;59.95;31.73;;;;;;;;;;5065848;28;20045;-58
2022/11/30 12:22:03;;;;;;;60.30;30.98;;;;;;;;;;5046778;28;20060;-59
2022/11/30 12:24:32;;;;;;;53.35;28.08;;;;;;;;;;5025254;28;20124;-58
2022/11/30 12:27:00;;;;;;;55.33;29.65;;;7.60;99.90;;;;;;5065615;28;20033;-59
2022/11/30 12:29:47;;;;;;;55.60;28.98;;;7.90;99.90;;;;;;5062730;28;20060;-59
2022/11/30 12:32:19;;;;;;;50.55;29.38;;;;;;;;;;5061345;28;20059;-58
2022/11/30 12:35:05;;;;;;;48.65;28.17;;;8.50;99.90;;;;;;5061153;28;20127;-58
2022/11/30 12:37:54;;;;;;;53.83;29.70;;;;;;;;;;5047566;28;20044;-59
2022/11/30 12:40:31;;;;;;;49.17;27.02;;;8.10;99.90;;;;;;5066373;28;20509;-58
2022/11/30 12:43:03;;;;;;;55.47;29.98;;;;;;;;;;5055806;28;20033;-58
2022/11/30 12:45:35;;;;;;;52.50;27.52;;;;;;;;;;5069253;28;20032;-58
2022/11/30 12:48:10;;;;;;;52.33;29.10;;;;;;;;;;5059610;28;20040;-59
2022/11/30 12:51:00;;;;;;;53.58;28.33;;;8.10;99.90;;;;;;5067056;28;20059;-58
2022/11/30 12:53:51;;;;;;;53.10;27.63;;;7.70;99.90;;;;;;5125601;27;20453;-57
2022/11/30 12:56:17;;;;;;;52.10;29.10;;;;;;;;;;5120736;27;20075;-56
2022/11/30 12:59:01;;;;;;;52.88;28.83;;;;;;;;;;5117692;27;20673;-58
2022/11/30 13:01:27;;;;;;;52.20;28.35;;;;;;;;;;5113338;27;20520;-57
2022/11/30 13:03:58;;;;;;;50.90;27.60;;;;;;;;;;5115505;27;20043;-56
2022/11/30 13:06:29;;;;;;;58.95;31.27;;;;;;;;;;5113321;27;20036;-57
2022/11/30 13:09:10;;;;;;;50.90;28.95;;;;;;;;;;5105829;27;20281;-56
2022/11/30 13:11:38;;;;;;;57.30;31.90;;;;;;;;;;5115674;27;20077;-57
2022/11/30 13:14:10;;;;;;;51.97;29.75;;;8.10;99.90;;;;;;5121464;27;20114;-57
2022/11/30 13:16:36;;;;;;;48.97;28.48;;;;;;;;;;5127926;27;20035;-56
2022/11/30 13:19:22;;;;;;;53.42;29.80;;;;;;;;;;5141104;27;20042;-57
2022/11/30 13:21:51;;;;;;;54.25;29.95;;;;;;;;;;5093642;27;20509;-57
2022/11/30 13:24:35;;;;;;;55.47;31.08;;;7.40;99.90;;;;;;5112838;27;20122;-56
2022/11/30 13:27:12;;;;;;;56.00;30.88;;;7.70;99.90;;;;;;5106800;27;20323;-57
2022/11/30 13:29:38;;;;;;;59.45;32.38;;;;;;;;;;5107786;27;20102;-57
2022/11/30 13:32:07;;;;;;;60.20;33.28;;;;;;;;;;5108585;27;20111;-57
2022/11/30 13:34:33;;;;;;;60.17;32.45;;;;;;;;;;5110196;27;20451;-56
2022/11/30 13:37:07;;;;;;;54.53;31.20;;;;;;;;;;5115234;27;20039;-55
2022/11/30 13:39:42;;;;;;;54.83;32.15;;;;;;;;;;5117941;27;20054;-57
2022/11/30 13:42:28;;;;;;;63.85;34.33;;;;;;;;;;5125698;27;20059;-57
2022/11/30 13:44:54;;;;;;;66.15;35.15;;;;;;;;;;5109090;27;20116;-57
2022/11/30 13:47:28;;;;;;;62.85;32.67;;;;;;;;;;5114906;27;20032;-56
2022/11/30 13:49:56;;;;;;;59.50;34.53;;;;;;;;;;5109688;27;20032;-57
2022/11/30 13:52:54;;;;;;;63.30;33.95;;;;;;;;;;5110104;27;20044;-56
2022/11/30 13:55:41;;;;;;;63.22;34.85;;;7.90;99.90;;;;;;5090152;27;20097;-57
2022/11/30 13:58:09;;;;;;;60.67;34.00;;;8.40;99.90;;;;;;5104679;27;20062;-57